Time;durP1;ratioP1;P1;durP2;ratioP2;P2;SDS_P1;SDS_P2;PMS_P1;PMS_P2;Temp;Humidity;BMP_temperature;BMP_pressure;BME280_temperature;BME280_humidity;BME280_pressure;Samples;Min_cycle;Max_cycle;Signal;HPM_P1;HPM_P2
2020/12/06 00:01:42;;;;;;;9.48;5.57;;;19.60;39.40;;;;;;5056575;28;20070;-73
2020/12/06 00:04:08;;;;;;;9.25;5.22;;;19.60;39.30;;;;;;5034703;28;20075;-74
2020/12/06 00:06:34;;;;;;;11.68;5.13;;;19.50;39.30;;;;;;5013915;28;20037;-74
2020/12/06 00:09:00;;;;;;;9.00;5.93;;;19.60;39.40;;;;;;5032726;28;20044;-73
2020/12/06 00:11:26;;;;;;;7.72;5.45;;;19.50;39.40;;;;;;5072154;28;20419;-75
2020/12/06 00:13:51;;;;;;;9.13;5.43;;;19.50;39.40;;;;;;5019929;28;20035;-74
2020/12/06 00:16:17;;;;;;;8.43;5.32;;;19.50;39.40;;;;;;5042223;28;20410;-73
2020/12/06 00:18:46;;;;;;;6.88;4.90;;;19.50;39.40;;;;;;5020687;28;20037;-73
2020/12/06 00:21:16;;;;;;;7.07;5.63;;;19.40;39.40;;;;;;5056187;28;20473;-74
2020/12/06 00:23:41;;;;;;;9.85;6.32;;;19.40;39.50;;;;;;5058987;28;20021;-74
2020/12/06 00:26:07;;;;;;;6.63;5.45;;;19.40;39.50;;;;;;5041745;28;20047;-70
2020/12/06 00:29:28;;;;;;;8.18;5.38;;;19.40;39.40;;;;;;5065134;28;20495;-70
2020/12/06 00:31:54;;;;;;;7.85;4.70;;;19.40;39.40;;;;;;5067138;28;20077;-70
2020/12/06 00:34:20;;;;;;;7.47;5.22;;;19.40;39.30;;;;;;5065507;28;20115;-70
2020/12/06 00:36:48;;;;;;;10.15;5.50;;;19.40;39.40;;;;;;5052754;28;20041;-70
2020/12/06 00:39:14;;;;;;;6.93;5.07;;;19.30;39.40;;;;;;5040619;28;20040;-70
2020/12/06 00:41:39;;;;;;;8.45;5.78;;;19.30;39.30;;;;;;5039025;28;20030;-70
2020/12/06 00:44:05;;;;;;;10.65;5.18;;;19.40;39.30;;;;;;5041572;28;20511;-70
2020/12/06 00:46:33;;;;;;;6.13;4.68;;;19.30;39.30;;;;;;5018500;28;20057;-70
2020/12/06 00:48:58;;;;;;;7.68;4.95;;;19.30;39.20;;;;;;5046058;28;20397;-69
2020/12/06 00:51:24;;;;;;;8.43;4.72;;;19.30;39.20;;;;;;5049515;28;20035;-69
2020/12/06 00:53:49;;;;;;;7.75;4.93;;;19.30;39.20;;;;;;5046727;28;20095;-69
2020/12/06 00:56:17;;;;;;;7.70;5.50;;;19.30;39.20;;;;;;5052834;28;20472;-70
2020/12/06 00:58:43;;;;;;;6.70;4.00;;;19.30;39.20;;;;;;5048416;28;20024;-69
2020/12/06 01:01:08;;;;;;;10.25;5.68;;;19.30;39.10;;;;;;5064608;28;20489;-69
2020/12/06 01:03:34;;;;;;;7.65;6.13;;;19.30;39.00;;;;;;5039051;28;20039;-69
2020/12/06 01:05:59;;;;;;;6.03;5.03;;;19.30;39.00;;;;;;5069277;28;20426;-69
2020/12/06 01:08:25;;;;;;;9.88;5.00;;;19.30;39.00;;;;;;5037088;28;20435;-69
2020/12/06 01:10:50;;;;;;;8.60;4.75;;;19.30;39.00;;;;;;5063014;28;20028;-70
2020/12/06 01:13:16;;;;;;;6.10;4.82;;;19.30;39.00;;;;;;5045038;28;20037;-70
2020/12/06 01:15:41;;;;;;;5.82;4.25;;;19.30;39.00;;;;;;5062268;28;20028;-70
2020/12/06 01:18:07;;;;;;;8.70;5.90;;;19.30;39.00;;;;;;5047434;28;20025;-69
2020/12/06 01:20:32;;;;;;;9.95;5.70;;;19.30;39.00;;;;;;5069622;28;20032;-69
2020/12/06 01:22:58;;;;;;;9.07;5.60;;;19.20;38.90;;;;;;5055300;28;20044;-69
2020/12/06 01:25:24;;;;;;;6.78;5.65;;;19.20;38.90;;;;;;5055246;28;20037;-70
2020/12/06 01:27:49;;;;;;;6.93;5.13;;;19.20;39.00;;;;;;5066987;28;20496;-69
2020/12/06 01:30:15;;;;;;;7.25;5.25;;;19.20;39.00;;;;;;5040727;28;20108;-69
2020/12/06 01:32:40;;;;;;;6.40;4.18;;;19.20;38.90;;;;;;5065488;28;20103;-69
2020/12/06 01:35:06;;;;;;;6.90;4.63;;;19.20;38.90;;;;;;5037589;28;20392;-74
2020/12/06 01:37:31;;;;;;;5.63;4.60;;;19.10;38.90;;;;;;5049884;28;20496;-73
2020/12/06 01:39:57;;;;;;;7.70;5.50;;;19.20;39.00;;;;;;5060058;28;20142;-73
2020/12/06 01:42:23;;;;;;;7.55;5.10;;;19.10;39.00;;;;;;5043133;28;20033;-73
2020/12/06 01:44:58;;;;;;;8.05;5.40;;;19.10;38.90;;;;;;5072128;28;20036;-73
2020/12/06 01:47:25;;;;;;;7.15;5.47;;;19.10;38.90;;;;;;5067972;28;20082;-73
2020/12/06 01:49:50;;;;;;;5.65;4.30;;;19.10;38.90;;;;;;5035157;28;20033;-74
2020/12/06 01:52:16;;;;;;;7.55;5.78;;;19.10;38.90;;;;;;5049290;28;20066;-73
2020/12/06 01:54:41;;;;;;;6.50;4.82;;;19.10;38.90;;;;;;5024030;28;20123;-74
2020/12/06 01:57:07;;;;;;;7.28;4.75;;;19.10;38.90;;;;;;5051633;28;20415;-74
2020/12/06 01:59:32;;;;;;;8.70;5.07;;;19.00;38.80;;;;;;5042584;28;20419;-73
2020/12/06 02:02:02;;;;;;;7.68;4.95;;;19.00;38.80;;;;;;5062396;28;20021;-73
2020/12/06 02:04:30;;;;;;;6.45;4.90;;;19.00;38.80;;;;;;5052148;28;20492;-73
2020/12/06 02:06:56;;;;;;;5.78;5.03;;;19.00;38.80;;;;;;5025236;28;20028;-74
2020/12/06 02:09:22;;;;;;;4.65;4.25;;;19.00;38.90;;;;;;5037856;28;20033;-73
2020/12/06 02:11:48;;;;;;;8.65;5.43;;;19.00;38.90;;;;;;5047326;28;20116;-74
2020/12/06 02:14:13;;;;;;;9.25;5.38;;;19.00;38.80;;;;;;5054447;28;20526;-74
2020/12/06 02:16:39;;;;;;;6.20;5.22;;;19.00;38.80;;;;;;5060696;28;20021;-69
2020/12/06 02:19:06;;;;;;;7.47;5.22;;;19.00;38.80;;;;;;5061591;28;20068;-70
2020/12/06 02:21:39;;;;;;;6.95;4.82;;;19.00;38.80;;;;;;5058101;28;20534;-69
2020/12/06 02:24:05;;;;;;;9.85;6.97;;;18.90;38.70;;;;;;5060113;28;20025;-70
2020/12/06 02:26:37;;;;;;;6.30;4.70;;;18.90;38.70;;;;;;5043435;28;20935;-69
2020/12/06 02:29:03;;;;;;;10.00;5.53;;;18.90;38.70;;;;;;5057390;28;20036;-70
2020/12/06 02:31:29;;;;;;;7.55;4.75;;;18.90;38.60;;;;;;5063164;28;20077;-75
2020/12/06 02:33:54;;;;;;;8.23;6.00;;;19.00;38.60;;;;;;5050382;28;20094;-75
2020/12/06 02:36:20;;;;;;;5.75;4.47;;;18.90;38.50;;;;;;5043749;28;20028;-75
2020/12/06 02:38:49;;;;;;;10.90;5.70;;;18.90;38.50;;;;;;5062217;28;20055;-75
2020/12/06 02:41:14;;;;;;;9.45;5.55;;;18.90;38.50;;;;;;5038172;28;20490;-74
2020/12/06 02:43:40;;;;;;;7.25;5.82;;;18.90;38.50;;;;;;5067177;28;20032;-74
2020/12/06 02:46:06;;;;;;;10.93;6.30;;;18.90;38.50;;;;;;5050190;28;20068;-74
2020/12/06 02:48:31;;;;;;;7.30;4.97;;;18.90;38.50;;;;;;5038615;28;20062;-74
2020/12/06 02:50:57;;;;;;;6.45;5.38;;;18.90;38.50;;;;;;5044674;28;20033;-74
2020/12/06 02:53:22;;;;;;;5.40;4.90;;;18.90;38.40;;;;;;5034988;28;20029;-69
2020/12/06 02:55:48;;;;;;;8.82;5.50;;;18.90;38.50;;;;;;5044559;28;20053;-69
2020/12/06 02:58:13;;;;;;;7.13;4.80;;;18.90;38.50;;;;;;5040314;28;20029;-69
2020/12/06 03:00:39;;;;;;;6.82;4.70;;;18.90;38.40;;;;;;5019789;28;20028;-74
2020/12/06 03:03:04;;;;;;;8.73;6.55;;;18.90;38.50;;;;;;5031640;28;20041;-74
2020/12/06 03:05:30;;;;;;;9.25;5.97;;;18.90;38.50;;;;;;5052442;28;20572;-75
2020/12/06 03:07:56;;;;;;;11.57;7.32;;;18.80;38.30;;;;;;5059593;28;20530;-75
2020/12/06 03:10:21;;;;;;;7.18;5.15;;;18.80;38.30;;;;;;5050853;28;20412;-69
2020/12/06 03:12:47;;;;;;;8.00;5.55;;;18.80;38.30;;;;;;5033282;28;20064;-69
2020/12/06 03:15:12;;;;;;;7.57;5.07;;;18.80;38.40;;;;;;5027027;28;20033;-69
2020/12/06 03:17:38;;;;;;;7.38;5.30;;;18.80;38.30;;;;;;5016846;28;20507;-70
2020/12/06 03:20:03;;;;;;;4.80;4.30;;;18.80;38.40;;;;;;5058259;28;20029;-70
2020/12/06 03:22:59;;;;;;;11.98;6.60;;;18.80;38.40;;;;;;5058558;28;20037;-75
2020/12/06 03:25:25;;;;;;;7.05;5.30;;;18.80;38.30;;;;;;5039922;28;20452;-74
2020/12/06 03:27:50;;;;;;;7.72;5.90;;;18.80;38.30;;;;;;5041768;28;20052;-73
2020/12/06 03:30:16;;;;;;;5.75;4.80;;;18.80;38.30;;;;;;5032647;28;20060;-73
2020/12/06 03:32:42;;;;;;;11.52;6.50;;;18.70;38.40;;;;;;5048654;28;20029;-73
2020/12/06 03:35:07;;;;;;;10.52;6.35;;;18.70;38.30;;;;;;5041624;28;20511;-73
2020/12/06 03:37:33;;;;;;;8.07;6.55;;;18.70;38.30;;;;;;5058894;28;20393;-74
2020/12/06 03:39:58;;;;;;;7.90;5.25;;;18.70;38.30;;;;;;5047093;28;20028;-73
2020/12/06 03:42:36;;;;;;;8.38;5.45;;;18.70;38.30;;;;;;5047210;28;20029;-73
2020/12/06 03:45:03;;;;;;;9.00;5.22;;;18.70;38.50;;;;;;5043427;28;20124;-74
2020/12/06 03:47:29;;;;;;;6.63;5.30;;;18.70;38.30;;;;;;5038199;28;20017;-69
2020/12/06 03:49:54;;;;;;;7.97;5.60;;;18.70;38.30;;;;;;5052048;28;20052;-69
2020/12/06 03:52:20;;;;;;;10.52;5.88;;;18.70;38.30;;;;;;5063473;28;20381;-69
2020/12/06 03:54:46;;;;;;;9.82;6.25;;;18.70;38.30;;;;;;5063565;28;20025;-69
2020/12/06 03:57:11;;;;;;;4.70;4.30;;;18.70;38.30;;;;;;5056385;28;20103;-69
2020/12/06 03:59:37;;;;;;;8.45;5.35;;;18.70;38.30;;;;;;5019266;28;20037;-69
2020/12/06 04:02:02;;;;;;;9.60;6.30;;;18.70;38.20;;;;;;5041338;28;20018;-70
2020/12/06 04:04:28;;;;;;;9.40;7.03;;;18.60;38.20;;;;;;5020766;28;20493;-69
2020/12/06 04:10:16;;;;;;;10.55;5.95;;;18.70;38.30;;;;;;5042432;28;20036;-70
2020/12/06 04:12:42;;;;;;;7.18;5.53;;;18.70;38.20;;;;;;5040063;28;20028;-69
2020/12/06 04:15:07;;;;;;;6.30;4.75;;;18.60;38.20;;;;;;5069636;28;20107;-70
2020/12/06 04:17:33;;;;;;;12.55;7.68;;;18.70;38.30;;;;;;5039254;28;20021;-70
2020/12/06 04:19:59;;;;;;;10.20;7.13;;;18.70;38.20;;;;;;5061394;28;20492;-69
2020/12/06 04:22:24;;;;;;;8.35;6.80;;;18.60;38.20;;;;;;5003170;28;20048;-69
2020/12/06 04:24:50;;;;;;;11.48;6.05;;;18.60;38.30;;;;;;5054559;28;20027;-69
2020/12/06 04:27:16;;;;;;;10.82;6.35;;;18.60;38.20;;;;;;5021730;28;20018;-70
2020/12/06 04:29:41;;;;;;;8.82;5.40;;;18.60;38.10;;;;;;5038756;28;20033;-70
2020/12/06 04:32:07;;;;;;;5.95;5.00;;;18.60;38.10;;;;;;5055410;28;20093;-70
2020/12/06 04:34:36;;;;;;;10.27;6.07;;;18.60;38.20;;;;;;5070422;28;20036;-70
2020/12/06 04:37:03;;;;;;;9.32;6.18;;;18.60;38.10;;;;;;5023648;28;20120;-70
2020/12/06 04:39:29;;;;;;;8.50;7.30;;;18.60;38.20;;;;;;5054812;28;20064;-70
2020/12/06 04:41:54;;;;;;;6.97;5.20;;;18.60;38.30;;;;;;5046700;28;20076;-70
2020/12/06 04:44:20;;;;;;;10.50;6.28;;;18.50;38.20;;;;;;5073974;28;20090;-70
2020/12/06 04:46:46;;;;;;;9.15;5.53;;;18.50;38.20;;;;;;5015193;28;20045;-70
2020/12/06 04:49:49;;;;;;;7.32;6.38;;;18.50;38.20;;;;;;5038039;28;20028;-70
2020/12/06 04:52:19;;;;;;;5.18;4.65;;;18.50;38.10;;;;;;4937660;29;20042;-70
2020/12/06 04:55:05;;;;;;;7.68;5.55;;;18.50;38.10;;;;;;4950649;28;20058;-69
2020/12/06 04:57:30;;;;;;;7.10;4.03;;;18.50;38.20;;;;;;4946895;28;20114;-69
2020/12/06 05:00:05;;;;;;;6.30;5.63;;;18.50;38.20;;;;;;4966718;28;20518;-70
2020/12/06 05:02:31;;;;;;;3.47;1.30;;;18.50;38.20;;;;;;4951138;29;20511;-69
2020/12/06 05:04:56;;;;;;;6.80;6.03;;;18.50;38.20;;;;;;4952649;28;20046;-69
2020/12/06 05:07:22;;;;;;;0.98;0.90;;;18.50;38.30;;;;;;4953376;28;20039;-69
2020/12/06 05:09:50;;;;;;;2.13;1.40;;;18.50;38.20;;;;;;4950568;28;20043;-69
2020/12/06 05:12:16;;;;;;;6.75;5.68;;;18.50;38.30;;;;;;4952844;28;20065;-69
2020/12/06 05:14:41;;;;;;;1.75;1.10;;;18.40;38.30;;;;;;4972794;28;20454;-69
2020/12/06 05:17:07;;;;;;;6.57;5.45;;;18.40;38.30;;;;;;4967995;28;20039;-70
2020/12/06 05:19:33;;;;;;;1.33;1.20;;;18.40;38.40;;;;;;4954438;28;20060;-69
2020/12/06 05:21:58;;;;;;;8.77;6.70;;;18.40;38.50;;;;;;4971177;28;20045;-69
2020/12/06 05:24:24;;;;;;;5.70;4.53;;;18.40;38.50;;;;;;4973269;28;20038;-69
2020/12/06 05:26:50;;;;;;;2.97;1.40;;;18.40;38.50;;;;;;4971644;28;20030;-69
2020/12/06 05:29:16;;;;;;;6.43;5.82;;;18.40;38.60;;;;;;5014375;28;20164;-69
2020/12/06 05:31:41;;;;;;;2.40;1.45;;;18.40;38.50;;;;;;4993684;28;20038;-69
2020/12/06 05:35:03;;;;;;;8.18;6.47;;;18.40;38.50;;;;;;5015255;28;20033;-69
2020/12/06 05:37:29;;;;;;;3.97;1.38;;;18.40;38.50;;;;;;5029242;28;20025;-69
2020/12/06 05:40:16;;;;;;;8.98;6.32;;;18.40;38.50;;;;;;5012790;28;20068;-69
2020/12/06 05:42:42;;;;;;;1.98;0.93;;;18.50;38.70;;;;;;4993008;28;20018;-70
2020/12/06 05:45:08;;;;;;;2.25;1.50;;;18.50;38.70;;;;;;5028530;28;20370;-75
2020/12/06 05:47:34;;;;;;;7.32;5.57;;;18.50;38.70;;;;;;5036316;28;20033;-74
2020/12/06 05:49:59;;;;;;;2.25;1.40;;;18.50;38.70;;;;;;5031066;28;20048;-74
2020/12/06 05:52:28;;;;;;;7.05;5.80;;;18.40;38.60;;;;;;5014097;28;20105;-73
2020/12/06 05:54:57;;;;;;;3.53;2.05;;;18.40;38.70;;;;;;4998340;28;20042;-73
2020/12/06 05:57:27;;;;;;;3.13;1.45;;;18.40;38.70;;;;;;5040371;28;20025;-74
2020/12/06 05:59:57;;;;;;;7.13;5.38;;;18.40;38.80;;;;;;5036483;28;20106;-74
2020/12/06 06:02:23;;;;;;;1.60;1.23;;;18.40;38.70;;;;;;4996929;28;20036;-74
2020/12/06 06:04:49;;;;;;;9.43;7.15;;;18.40;38.70;;;;;;5033832;28;20476;-74
2020/12/06 06:07:21;;;;;;;7.60;5.50;;;18.40;38.80;;;;;;5027540;28;20036;-74
2020/12/06 06:09:58;;;;;;;1.33;1.20;;;18.40;38.90;;;;;;5025857;28;20029;-74
2020/12/06 06:12:24;;;;;;;6.93;6.10;;;18.40;38.90;;;;;;5009107;28;20037;-70
2020/12/06 06:14:50;;;;;;;1.85;1.25;;;18.40;39.00;;;;;;5013438;28;20045;-70
2020/12/06 06:17:16;;;;;;;8.70;6.68;;;18.40;39.00;;;;;;5003424;28;20036;-70
2020/12/06 06:19:43;;;;;;;6.97;4.90;;;18.40;39.00;;;;;;4999244;28;20113;-70
2020/12/06 06:22:08;;;;;;;1.67;1.30;;;18.40;39.10;;;;;;5012436;28;20377;-70
2020/12/06 06:24:34;;;;;;;7.60;5.78;;;18.40;39.00;;;;;;5049088;28;20035;-70
2020/12/06 06:26:59;;;;;;;1.85;1.35;;;18.40;39.10;;;;;;5053254;28;20516;-70
2020/12/06 06:29:25;;;;;;;1.48;1.38;;;18.40;39.10;;;;;;5030112;28;20028;-69
2020/12/06 06:31:54;;;;;;;7.32;5.60;;;18.40;39.20;;;;;;5046570;28;20021;-69
2020/12/06 06:34:26;;;;;;;2.72;1.52;;;18.30;39.20;;;;;;5034891;28;20108;-69
2020/12/06 06:36:52;;;;;;;7.40;6.22;;;18.40;39.20;;;;;;5030455;28;20382;-69
2020/12/06 06:39:22;;;;;;;6.15;4.55;;;18.40;39.40;;;;;;5049361;28;20091;-69
2020/12/06 06:42:04;;;;;;;1.98;1.27;;;18.40;39.60;;;;;;5030416;28;20508;-69
2020/12/06 06:44:30;;;;;;;7.75;6.10;;;18.40;39.50;;;;;;5054303;28;20035;-69
2020/12/06 06:47:01;;;;;;;1.95;1.48;;;18.50;39.50;;;;;;5019972;28;20029;-69
2020/12/06 06:52:49;;;;;;;2.85;1.60;;;18.60;39.20;;;;;;5047773;28;20040;-70
2020/12/06 06:55:14;;;;;;;3.03;1.38;;;18.70;39.10;;;;;;5030833;28;20030;-70
2020/12/06 06:57:40;;;;;;;7.32;5.75;;;18.80;38.90;;;;;;5047920;28;20102;-70
2020/12/06 07:00:06;;;;;;;2.03;1.45;;;18.90;38.90;;;;;;5048219;28;20056;-70
2020/12/06 07:02:36;;;;;;;7.80;6.53;;;19.00;38.70;;;;;;5049598;28;20043;-70
2020/12/06 07:05:04;;;;;;;1.52;0.98;;;19.10;38.50;;;;;;5043768;28;20037;-70
2020/12/06 07:07:49;;;;;;;2.50;1.15;;;19.20;38.40;;;;;;5032640;28;20026;-70
2020/12/06 07:10:22;;;;;;;7.68;5.45;;;19.30;38.10;;;;;;5041354;28;20167;-70
2020/12/06 07:12:51;;;;;;;1.85;1.02;;;19.40;38.00;;;;;;5042224;28;20050;-72
2020/12/06 07:15:18;;;;;;;8.02;6.28;;;19.50;37.80;;;;;;5032488;28;20078;-70
2020/12/06 07:17:44;;;;;;;1.73;0.98;;;19.60;37.70;;;;;;5056356;28;20036;-70
2020/12/06 07:20:11;;;;;;;2.75;1.55;;;19.60;37.50;;;;;;5062445;28;20029;-69
2020/12/06 07:22:37;;;;;;;9.68;5.88;;;19.70;37.30;;;;;;5051144;28;20500;-70
2020/12/06 07:25:06;;;;;;;1.33;1.20;;;19.80;37.20;;;;;;5060107;28;20025;-70
2020/12/06 07:27:32;;;;;;;10.52;5.90;;;19.80;37.00;;;;;;5050916;28;20025;-71
2020/12/06 07:29:59;;;;;;;4.47;3.30;;;19.90;37.00;;;;;;5063728;28;20047;-70
2020/12/06 07:32:24;;;;;;;1.65;1.30;;;20.00;37.00;;;;;;5049187;28;20063;-75
2020/12/06 07:34:50;;;;;;;7.38;6.22;;;20.00;36.90;;;;;;5059013;28;20126;-75
2020/12/06 07:37:16;;;;;;;2.17;1.13;;;20.00;37.00;;;;;;5055109;28;20531;-76
2020/12/06 07:39:46;;;;;;;8.88;6.82;;;20.00;36.90;;;;;;5046687;28;20069;-74
2020/12/06 07:42:22;;;;;;;3.00;1.65;;;20.00;36.90;;;;;;5050796;28;20036;-74
2020/12/06 07:44:49;;;;;;;2.88;1.50;;;20.10;36.90;;;;;;5061351;28;20728;-74
2020/12/06 07:47:16;;;;;;;7.38;6.07;;;20.10;36.80;;;;;;5045686;28;20037;-75
2020/12/06 07:49:42;;;;;;;1.90;1.33;;;20.10;36.90;;;;;;5078269;28;20035;-73
2020/12/06 07:52:16;;;;;;;8.63;6.78;;;20.10;36.90;;;;;;5068289;28;20049;-72
2020/12/06 07:55:00;;;;;;;2.20;1.02;;;20.10;36.90;;;;;;5051247;28;20028;-73
2020/12/06 07:57:34;;;;;;;12.90;8.07;;;20.10;36.90;;;;;;5058098;28;20024;-73
2020/12/06 08:00:00;;;;;;;1.20;1.10;;;20.20;36.90;;;;;;5080414;28;20530;-73
2020/12/06 08:02:27;;;;;;;1.85;1.38;;;20.20;37.00;;;;;;5068523;28;20032;-73
2020/12/06 08:04:52;;;;;;;8.00;5.78;;;20.20;37.00;;;;;;5062201;28;20085;-73
2020/12/06 08:07:22;;;;;;;2.25;1.10;;;20.20;36.90;;;;;;5061738;28;20086;-73
2020/12/06 08:09:47;;;;;;;8.30;7.00;;;20.20;36.80;;;;;;5061373;28;20115;-73
2020/12/06 08:12:13;;;;;;;2.22;1.33;;;20.30;36.70;;;;;;5055557;28;20182;-73
2020/12/06 08:14:38;;;;;;;9.80;7.60;;;20.30;36.70;;;;;;5055639;28;20047;-73
2020/12/06 08:17:13;;;;;;;1.33;1.23;;;20.30;36.60;;;;;;5056503;28;20040;-73
2020/12/06 08:19:41;;;;;;;11.23;7.93;;;20.30;36.50;;;;;;5058728;28;20024;-72
2020/12/06 08:22:07;;;;;;;1.80;0.70;;;20.30;36.40;;;;;;5062621;28;20789;-73
2020/12/06 08:24:33;;;;;;;2.40;1.15;;;20.30;36.50;;;;;;5059936;28;20055;-69
2020/12/06 08:26:59;;;;;;;8.35;6.57;;;20.30;36.50;;;;;;5059345;28;20114;-69
2020/12/06 08:29:41;;;;;;;1.73;0.80;;;20.30;36.50;;;;;;5063901;28;20166;-69
2020/12/06 08:32:07;;;;;;;10.50;8.25;;;20.30;36.50;;;;;;5070131;28;20048;-68
2020/12/06 08:34:33;;;;;;;2.95;1.80;;;20.30;36.50;;;;;;5069860;28;20500;-69
2020/12/06 08:37:18;;;;;;;9.25;7.35;;;20.40;36.60;;;;;;5048903;28;20507;-69
2020/12/06 08:39:44;;;;;;;3.10;1.75;;;20.30;36.50;;;;;;5058606;28;20037;-69
2020/12/06 08:42:17;;;;;;;3.53;2.20;;;20.30;36.50;;;;;;5058789;28;20033;-69
2020/12/06 08:44:56;;;;;;;6.07;5.13;;;20.30;36.60;;;;;;5073251;28;20024;-73
2020/12/06 08:47:23;;;;;;;2.67;1.30;;;20.30;36.60;;;;;;5057200;28;20020;-73
2020/12/06 08:50:00;;;;;;;8.45;7.00;;;20.30;36.50;;;;;;5042755;28;20086;-74
2020/12/06 08:52:26;;;;;;;2.10;1.33;;;20.30;36.60;;;;;;5040833;28;20017;-73
2020/12/06 08:54:51;;;;;;;11.20;8.23;;;20.30;36.60;;;;;;5080247;28;20457;-73
2020/12/06 08:57:19;;;;;;;2.00;1.17;;;20.30;36.80;;;;;;5079236;28;20032;-73
2020/12/06 08:59:47;;;;;;;2.58;1.55;;;20.30;36.80;;;;;;5068500;28;20024;-73
2020/12/06 09:02:21;;;;;;;10.30;8.18;;;20.30;36.80;;;;;;5069586;28;20035;-73
2020/12/06 09:04:46;;;;;;;3.10;1.70;;;20.30;36.90;;;;;;5041501;28;20052;-73
2020/12/06 09:07:12;;;;;;;3.38;1.48;;;20.30;36.90;;;;;;5059282;28;20067;-74
2020/12/06 09:09:38;;;;;;;12.10;8.30;;;20.30;36.90;;;;;;5051124;28;20058;-72
2020/12/06 09:12:03;;;;;;;1.40;1.30;;;20.30;37.60;;;;;;5057535;28;20037;-72
2020/12/06 09:14:29;;;;;;;2.13;1.08;;;20.30;36.90;;;;;;5076954;28;20062;-73
2020/12/06 09:16:54;;;;;;;1.33;1.20;;;20.20;36.90;;;;;;5072260;28;20041;-73
2020/12/06 09:19:20;;;;;;;23.70;14.73;;;20.30;37.00;;;;;;5076296;28;20039;-73
2020/12/06 09:21:45;;;;;;;1.20;1.10;;;20.30;36.90;;;;;;5078847;28;20036;-68
2020/12/06 09:24:11;;;;;;;4.00;1.50;;;20.30;37.00;;;;;;5077088;28;20475;-70
2020/12/06 09:26:38;;;;;;;2.55;1.55;;;20.30;37.00;;;;;;5044022;28;20040;-68
2020/12/06 09:29:03;;;;;;;10.93;6.90;;;20.30;37.00;;;;;;5075987;28;20034;-75
2020/12/06 09:31:29;;;;;;;2.60;1.48;;;20.20;37.10;;;;;;5076349;28;20033;-73
2020/12/06 09:33:54;;;;;;;2.92;1.40;;;20.30;37.10;;;;;;5076328;28;20033;-73
2020/12/06 09:36:20;;;;;;;10.25;7.50;;;20.30;37.10;;;;;;5060763;28;20096;-73
2020/12/06 09:38:46;;;;;;;2.53;1.40;;;20.30;37.00;;;;;;5077422;28;20593;-73
2020/12/06 09:41:12;;;;;;;4.45;2.42;;;20.30;37.00;;;;;;5076781;28;20491;-75
2020/12/06 09:43:42;;;;;;;11.65;8.73;;;20.40;37.60;;;;;;5063368;28;20028;-75
2020/12/06 09:46:08;;;;;;;4.28;2.03;;;20.40;37.10;;;;;;5055606;28;20033;-74
2020/12/06 09:48:34;;;;;;;3.00;1.85;;;20.40;37.00;;;;;;5057528;28;20044;-74
2020/12/06 09:51:00;;;;;;;3.53;1.98;;;20.30;36.90;;;;;;5041034;28;20400;-74
2020/12/06 09:53:25;;;;;;;3.17;1.67;;;20.30;37.00;;;;;;5069259;28;20043;-73
2020/12/06 09:55:51;;;;;;;2.33;1.67;;;20.30;37.60;;;;;;5055439;28;20047;-73
2020/12/06 09:58:17;;;;;;;4.15;1.75;;;20.30;37.00;;;;;;5074338;28;20029;-75
2020/12/06 10:00:43;;;;;;;2.58;1.77;;;20.30;36.90;;;;;;5043330;28;20039;-73
2020/12/06 10:03:08;;;;;;;4.18;1.75;;;20.40;36.90;;;;;;5073994;28;20070;-73
2020/12/06 10:05:34;;;;;;;3.38;1.90;;;20.40;36.90;;;;;;5075601;28;20029;-72
2020/12/06 10:07:59;;;;;;;25.75;16.30;;;20.40;36.90;;;;;;5074816;28;20052;-72
2020/12/06 10:10:25;;;;;;;3.92;1.98;;;20.40;36.90;;;;;;5058303;28;20036;-72
2020/12/06 10:12:50;;;;;;;3.13;2.03;;;20.40;36.90;;;;;;5068769;28;20027;-72
2020/12/06 10:15:16;;;;;;;3.78;2.55;;;20.40;36.90;;;;;;5051609;28;20427;-73
2020/12/06 10:17:42;;;;;;;2.45;2.08;;;20.40;37.00;;;;;;5060779;28;20041;-73
2020/12/06 10:20:07;;;;;;;3.20;2.10;;;20.40;37.00;;;;;;5059898;28;20124;-73
2020/12/06 10:22:33;;;;;;;2.75;2.05;;;20.40;36.90;;;;;;5056409;28;20052;-72
2020/12/06 10:24:59;;;;;;;5.00;2.55;;;20.50;36.90;;;;;;5054891;28;20057;-68
2020/12/06 10:27:25;;;;;;;4.78;2.35;;;20.50;36.80;;;;;;5040033;28;20131;-68
2020/12/06 10:29:50;;;;;;;3.58;2.08;;;20.50;36.80;;;;;;5058007;28;20830;-68
2020/12/06 10:32:16;;;;;;;2.47;1.67;;;20.50;36.80;;;;;;5058572;28;20456;-68
2020/12/06 10:34:41;;;;;;;3.55;2.03;;;20.50;36.70;;;;;;5057953;28;20400;-68
2020/12/06 10:37:07;;;;;;;4.65;2.08;;;20.50;36.80;;;;;;5072779;28;20033;-67
2020/12/06 10:39:33;;;;;;;6.38;1.88;;;20.50;36.70;;;;;;5038523;28;20067;-68
2020/12/06 10:41:58;;;;;;;2.28;1.60;;;20.50;36.60;;;;;;5072114;28;20514;-69
2020/12/06 10:44:25;;;;;;;3.28;1.83;;;20.50;36.50;;;;;;5078050;28;20059;-69
2020/12/06 10:46:51;;;;;;;2.75;1.50;;;20.50;36.40;;;;;;5075968;28;20452;-69
2020/12/06 10:49:17;;;;;;;1.70;1.23;;;20.50;36.40;;;;;;5058296;28;20024;-69
2020/12/06 10:51:43;;;;;;;1.38;1.20;;;20.60;36.30;;;;;;5075941;28;20094;-69
2020/12/06 10:54:09;;;;;;;1.58;1.13;;;20.60;36.30;;;;;;5058890;28;20024;-69
2020/12/06 10:56:36;;;;;;;6.57;1.55;;;20.50;36.30;;;;;;5069498;28;20059;-67
2020/12/06 10:59:02;;;;;;;2.67;1.92;;;20.60;36.30;;;;;;5068568;28;20035;-69
2020/12/06 11:01:28;;;;;;;3.63;1.45;;;20.50;36.80;;;;;;5067105;28;20020;-73
2020/12/06 11:03:54;;;;;;;3.47;1.63;;;20.50;36.20;;;;;;5058058;28;20098;-73
2020/12/06 11:06:22;;;;;;;3.42;2.15;;;20.50;36.30;;;;;;5057094;28;20050;-73
2020/12/06 11:08:48;;;;;;;4.22;2.15;;;20.50;36.40;;;;;;5068219;28;20020;-71
2020/12/06 11:11:14;;;;;;;4.13;2.83;;;20.50;36.50;;;;;;5067585;28;20044;-72
2020/12/06 11:13:40;;;;;;;5.43;3.65;;;20.50;36.50;;;;;;5055286;28;20036;-73
2020/12/06 11:16:06;;;;;;;4.38;3.33;;;20.50;36.50;;;;;;5058609;28;20399;-73
2020/12/06 11:18:31;;;;;;;4.75;3.95;;;20.60;36.50;;;;;;5056190;28;20048;-73
2020/12/06 11:20:57;;;;;;;6.60;4.40;;;20.60;36.60;;;;;;5057829;28;20040;-75
2020/12/06 11:23:22;;;;;;;7.10;4.47;;;20.60;36.70;;;;;;5054715;28;20036;-75
2020/12/06 11:25:48;;;;;;;6.32;4.47;;;20.60;37.30;;;;;;5054511;28;20995;-75
2020/12/06 11:28:14;;;;;;;6.40;4.40;;;20.70;36.60;;;;;;5057043;28;20492;-75
2020/12/06 11:30:39;;;;;;;5.13;3.80;;;20.70;36.60;;;;;;5050814;28;20061;-75
2020/12/06 11:33:05;;;;;;;5.40;3.20;;;20.60;36.60;;;;;;5030206;28;20016;-75
2020/12/06 11:35:30;;;;;;;4.90;3.22;;;20.60;36.50;;;;;;5046833;28;20064;-75
2020/12/06 11:37:56;;;;;;;6.95;3.70;;;20.70;36.60;;;;;;5052677;28;20110;-75
2020/12/06 11:40:21;;;;;;;5.70;3.83;;;20.70;36.50;;;;;;5056617;28;20025;-74
2020/12/06 11:42:47;;;;;;;10.18;3.40;;;20.70;36.60;;;;;;5036619;28;20037;-75
2020/12/06 11:45:13;;;;;;;5.50;3.05;;;20.60;37.20;;;;;;5056394;28;20114;-75
2020/12/06 11:47:38;;;;;;;4.13;2.97;;;20.60;36.60;;;;;;5035845;28;20060;-75
2020/12/06 11:50:06;;;;;;;5.40;3.08;;;20.70;36.60;;;;;;5035249;28;20043;-75
2020/12/06 11:52:31;;;;;;;3.55;2.28;;;20.70;36.60;;;;;;5051342;28;20716;-75
2020/12/06 11:54:57;;;;;;;6.60;2.40;;;20.70;36.60;;;;;;5043925;28;20116;-75
2020/12/06 11:57:22;;;;;;;4.10;2.45;;;20.70;36.50;;;;;;5031267;28;20040;-75
2020/12/06 11:59:48;;;;;;;4.03;2.55;;;20.70;36.40;;;;;;5046540;28;20029;-75
2020/12/06 12:02:13;;;;;;;4.53;2.67;;;20.70;36.30;;;;;;5043053;28;20107;-75
2020/12/06 12:04:39;;;;;;;5.32;2.78;;;20.70;36.40;;;;;;5031723;28;20037;-75
2020/12/06 12:07:04;;;;;;;7.65;2.55;;;20.70;36.30;;;;;;5047464;28;21800;-75
2020/12/06 12:09:30;;;;;;;3.92;2.83;;;20.70;36.30;;;;;;5054613;28;20043;-75
2020/12/06 12:11:55;;;;;;;5.30;2.75;;;20.70;36.20;;;;;;5052019;28;20110;-75
2020/12/06 12:14:21;;;;;;;6.65;3.42;;;20.70;36.20;;;;;;5032843;28;20115;-75
2020/12/06 12:16:47;;;;;;;5.38;2.97;;;20.70;36.10;;;;;;5045861;28;20064;-75
2020/12/06 12:19:12;;;;;;;4.55;2.55;;;20.80;36.20;;;;;;5056467;28;20031;-74
2020/12/06 12:21:38;;;;;;;9.68;3.28;;;20.70;36.10;;;;;;5073497;28;20119;-74
2020/12/06 12:24:03;;;;;;;4.47;3.20;;;20.70;36.10;;;;;;5034076;28;20044;-74
2020/12/06 12:26:29;;;;;;;7.03;3.53;;;20.70;36.10;;;;;;5077933;28;20449;-74
2020/12/06 12:28:58;;;;;;;5.15;3.90;;;20.70;36.10;;;;;;5060559;28;20055;-75
2020/12/06 12:31:28;;;;;;;6.32;3.05;;;20.70;36.10;;;;;;5042538;28;20031;-74
2020/12/06 12:33:53;;;;;;;4.60;2.92;;;20.70;36.10;;;;;;5070074;28;21625;-75
2020/12/06 12:36:19;;;;;;;5.88;3.22;;;20.60;36.10;;;;;;5061059;28;20156;-74
2020/12/06 12:38:44;;;;;;;5.72;3.30;;;20.70;36.20;;;;;;5057473;28;20053;-75
2020/12/06 12:41:10;;;;;;;6.28;3.58;;;20.60;36.20;;;;;;5068316;28;20031;-75
2020/12/06 12:43:36;;;;;;;6.78;4.07;;;20.60;36.20;;;;;;5059529;28;20076;-75
2020/12/06 12:46:01;;;;;;;5.95;3.28;;;20.60;36.20;;;;;;5050867;28;20029;-75
2020/12/06 12:48:27;;;;;;;5.78;3.13;;;20.60;36.20;;;;;;5057555;28;20510;-75
2020/12/06 12:50:52;;;;;;;6.35;3.97;;;20.60;36.20;;;;;;5069798;28;20544;-75
2020/12/06 12:53:18;;;;;;;5.00;3.00;;;20.60;36.20;;;;;;5058463;28;20470;-75